Time;durP1;ratioP1;P1;durP2;ratioP2;P2;SDS_P1;SDS_P2;PMS_P1;PMS_P2;Temp;Humidity;BMP_temperature;BMP_pressure;BME280_temperature;BME280_humidity;BME280_pressure;Samples;Min_cycle;Max_cycle;Signal;HPM_P1;HPM_P2
2023/12/06 00:02:19;;;;;;;;;;;;;;;17.04;43.06;98861.00;10326086;28;934;-70
2023/12/06 00:07:15;;;;;;;;;;;;;;;17.04;42.93;98860.16;10326159;28;1961;-70
2023/12/06 00:12:10;;;;;;;;;;;;;;;17.03;42.80;98863.75;10325869;28;874;-69
2023/12/06 00:17:06;;;;;;;;;;;;;;;17.03;42.75;98871.63;10325196;28;892;-69
2023/12/06 00:22:02;;;;;;;;;;;;;;;17.02;42.93;98868.13;10325708;28;881;-70
2023/12/06 00:26:58;;;;;;;;;;;;;;;17.02;42.94;98880.44;10324954;28;1956;-69
2023/12/06 00:31:54;;;;;;;;;;;;;;;17.01;42.79;98878.75;10324958;28;774;-69
2023/12/06 00:36:50;;;;;;;;;;;;;;;17.02;42.80;98883.06;10324649;28;1310;-69
2023/12/06 00:41:46;;;;;;;;;;;;;;;17.02;43.04;98886.56;10324935;28;897;-69
2023/12/06 00:46:42;;;;;;;;;;;;;;;17.01;42.81;98892.75;10324631;28;1887;-70
2023/12/06 00:51:38;;;;;;;;;;;;;;;17.01;42.92;98886.66;10324558;28;887;-69
2023/12/06 00:56:34;;;;;;;;;;;;;;;17.02;42.85;98886.56;10324469;28;778;-69
2023/12/06 01:01:29;;;;;;;;;;;;;;;17.01;42.79;98897.19;10324389;28;876;-69
2023/12/06 01:06:26;;;;;;;;;;;;;;;17.02;43.01;98904.13;10329832;28;1965;-69
2023/12/06 01:11:21;;;;;;;;;;;;;;;17.02;42.83;98906.78;10332259;28;840;-70
2023/12/06 01:16:17;;;;;;;;;;;;;;;17.00;43.02;98919.16;10331525;28;899;-69
2023/12/06 01:21:13;;;;;;;;;;;;;;;16.98;42.87;98919.25;10331987;28;872;-69
2023/12/06 01:26:09;;;;;;;;;;;;;;;16.99;42.85;98928.84;10331107;28;1890;-69
2023/12/06 01:31:05;;;;;;;;;;;;;;;16.99;42.82;98933.25;10331620;28;830;-69
2023/12/06 01:36:01;;;;;;;;;;;;;;;16.97;43.00;98949.13;10330746;28;1421;-69
2023/12/06 01:40:57;;;;;;;;;;;;;;;16.97;42.82;98948.28;10331206;28;798;-69
2023/12/06 01:45:53;;;;;;;;;;;;;;;16.98;42.93;98955.28;10331138;28;1967;-69
2023/12/06 01:50:49;;;;;;;;;;;;;;;16.96;42.81;98950.06;10330850;28;934;-70
2023/12/06 01:55:45;;;;;;;;;;;;;;;16.96;43.05;98959.75;10330086;28;928;-69
2023/12/06 02:00:41;;;;;;;;;;;;;;;16.97;43.03;98959.66;10329863;28;875;-69
2023/12/06 02:05:37;;;;;;;;;;;;;;;16.96;43.07;98968.50;10329612;28;1898;-69
2023/12/06 02:10:33;;;;;;;;;;;;;;;16.95;43.07;98968.56;10329457;28;784;-69
2023/12/06 02:15:28;;;;;;;;;;;;;;;16.94;42.99;98970.34;10328328;28;774;-69
2023/12/06 02:20:24;;;;;;;;;;;;;;;16.94;42.87;98975.63;10328463;28;1071;-69
2023/12/06 02:25:20;;;;;;;;;;;;;;;16.94;42.99;98978.25;10328824;28;1963;-69
2023/12/06 02:30:16;;;;;;;;;;;;;;;16.96;42.93;98975.56;10329368;28;822;-69
2023/12/06 02:35:12;;;;;;;;;;;;;;;16.95;43.03;98979.97;10329020;28;1365;-69
2023/12/06 02:40:08;;;;;;;;;;;;;;;16.92;42.91;98980.09;10329049;28;1007;-69
2023/12/06 02:45:04;;;;;;;;;;;;;;;16.93;42.89;98980.97;10328603;28;1977;-69
2023/12/06 02:50:00;;;;;;;;;;;;;;;16.93;42.87;98984.47;10327889;28;925;-69
2023/12/06 02:54:56;;;;;;;;;;;;;;;16.94;42.90;98990.56;10328494;28;879;-70
2023/12/06 02:59:52;;;;;;;;;;;;;;;16.92;42.94;98982.75;10327559;28;939;-69
2023/12/06 03:04:48;;;;;;;;;;;;;;;16.93;42.98;98981.81;10327159;28;1957;-69
2023/12/06 03:09:43;;;;;;;;;;;;;;;16.93;42.88;98984.47;10327936;28;879;-70
2023/12/06 03:14:39;;;;;;;;;;;;;;;16.93;42.86;98986.25;10327549;28;964;-69
2023/12/06 03:19:35;;;;;;;;;;;;;;;16.92;43.01;98995.06;10327352;28;794;-69
2023/12/06 03:24:31;;;;;;;;;;;;;;;16.92;42.86;99000.31;10326556;28;883;-69
2023/12/06 03:29:27;;;;;;;;;;;;;;;16.89;43.03;98997.84;10326435;28;1955;-69
2023/12/06 03:34:23;;;;;;;;;;;;;;;16.91;42.74;99001.25;10325952;28;1230;-69
2023/12/06 03:39:19;;;;;;;;;;;;;;;16.89;43.10;98996.06;10326979;28;941;-69
2023/12/06 03:44:15;;;;;;;;;;;;;;;16.89;43.01;99005.75;10325968;28;771;-69
2023/12/06 03:49:10;;;;;;;;;;;;;;;16.88;42.94;99006.69;10325909;28;1918;-69
2023/12/06 03:54:06;;;;;;;;;;;;;;;16.88;42.82;99023.31;10325703;28;771;-69
2023/12/06 03:59:04;;;;;;;;;;;;;;;16.87;43.08;99018.97;10326816;28;1040;-69
2023/12/06 04:04:00;;;;;;;;;;;;;;;16.85;43.20;99026.13;10325443;28;954;-69
2023/12/06 04:08:55;;;;;;;;;;;;;;;16.86;42.90;99031.28;10325929;28;1957;-69
2023/12/06 04:13:51;;;;;;;;;;;;;;;16.86;42.84;99030.44;10325970;28;916;-69
2023/12/06 04:18:47;;;;;;;;;;;;;;;16.83;43.25;99031.44;10325201;28;822;-69
2023/12/06 04:23:43;;;;;;;;;;;;;;;16.83;43.13;99049.03;10326500;28;921;-70
2023/12/06 04:28:39;;;;;;;;;;;;;;;16.84;42.98;99046.31;10324792;28;1958;-69
2023/12/06 04:33:35;;;;;;;;;;;;;;;16.88;42.84;99046.19;10324930;28;1128;-69
2023/12/06 04:38:31;;;;;;;;;;;;;;;16.91;42.92;99059.16;10325497;28;901;-69
2023/12/06 04:43:27;;;;;;;;;;;;;;;16.92;42.73;99066.13;10332895;28;778;-69
2023/12/06 04:48:23;;;;;;;;;;;;;;;16.96;42.84;99079.06;10332619;28;1977;-69
2023/12/06 04:53:18;;;;;;;;;;;;;;;16.98;42.78;99081.63;10332387;28;1050;-69
2023/12/06 04:58:14;;;;;;;;;;;;;;;16.99;42.76;99094.69;10332167;28;925;-69
2023/12/06 05:03:10;;;;;;;;;;;;;;;17.00;42.67;99100.81;10332054;28;853;-69
2023/12/06 05:08:06;;;;;;;;;;;;;;;17.04;42.55;99102.38;10331909;28;1905;-69
2023/12/06 05:13:02;;;;;;;;;;;;;;;17.03;42.47;99101.53;10331595;28;946;-69
2023/12/06 05:17:58;;;;;;;;;;;;;;;17.10;42.26;99104.69;10332123;28;779;-69
2023/12/06 05:22:54;;;;;;;;;;;;;;;17.13;42.17;99109.78;10331310;28;759;-70
2023/12/06 05:27:50;;;;;;;;;;;;;;;17.09;42.40;99111.75;10331073;28;1897;-71
2023/12/06 05:32:46;;;;;;;;;;;;;;;17.17;42.10;99119.25;10331211;28;1121;-70
2023/12/06 05:37:41;;;;;;;;;;;;;;;17.22;42.12;99125.16;10330277;28;858;-70
2023/12/06 05:42:37;;;;;;;;;;;;;;;17.18;42.35;99131.47;10330636;28;917;-70
2023/12/06 05:47:33;;;;;;;;;;;;;;;17.22;42.47;99140.09;10329856;28;1909;-70
2023/12/06 05:52:29;;;;;;;;;;;;;;;17.21;42.41;99135.75;10328877;28;878;-70
2023/12/06 05:57:25;;;;;;;;;;;;;;;17.17;42.45;99139.47;10330908;28;965;-70
2023/12/06 06:02:21;;;;;;;;;;;;;;;17.19;42.45;99137.63;10329883;28;791;-71
2023/12/06 06:07:17;;;;;;;;;;;;;;;17.22;42.36;99146.22;10329054;28;1951;-70
2023/12/06 06:12:13;;;;;;;;;;;;;;;17.27;42.47;99152.09;10329498;28;841;-70
2023/12/06 06:17:08;;;;;;;;;;;;;;;17.29;42.31;99146.75;10329955;28;931;-70
2023/12/06 06:22:05;;;;;;;;;;;;;;;17.20;42.44;99157.75;10329160;28;780;-70
2023/12/06 06:27:02;;;;;;;;;;;;;;;17.25;42.71;99169.75;10328844;28;1898;-70
2023/12/06 06:31:58;;;;;;;;;;;;;;;17.28;42.52;99169.59;10328812;28;881;-71
2023/12/06 06:36:54;;;;;;;;;;;;;;;17.27;42.51;99174.97;10327865;28;1389;-73
2023/12/06 06:41:50;;;;;;;;;;;;;;;17.30;42.65;99178.28;10328289;28;891;-71
2023/12/06 06:46:46;;;;;;;;;;;;;;;17.28;42.53;99179.28;10328043;28;1918;-71
2023/12/06 06:51:42;;;;;;;;;;;;;;;17.25;42.62;99180.28;10327892;28;893;-71
2023/12/06 06:56:38;;;;;;;;;;;;;;;17.28;42.57;99187.19;10327712;28;937;-70
2023/12/06 07:01:34;;;;;;;;;;;;;;;17.31;42.31;99195.78;10326472;28;1032;-70
2023/12/06 07:06:30;;;;;;;;;;;;;;;17.29;42.54;99197.66;10327185;28;1901;-70
2023/12/06 07:11:26;;;;;;;;;;;;;;;17.31;42.35;99198.41;10327705;28;818;-69
2023/12/06 07:16:21;;;;;;;;;;;;;;;17.29;42.52;99209.94;10326352;28;842;-70
2023/12/06 07:21:17;;;;;;;;;;;;;;;17.37;42.58;99213.09;10327931;28;912;-70
2023/12/06 07:26:13;;;;;;;;;;;;;;;17.37;42.56;99223.63;10327088;28;1964;-70
2023/12/06 07:31:09;;;;;;;;;;;;;;;17.33;43.00;99229.97;10326270;28;974;-70
2023/12/06 07:36:06;;;;;;;;;;;;;;;17.35;42.83;99227.25;10326647;28;1171;-68
2023/12/06 07:41:02;;;;;;;;;;;;;;;17.37;42.93;99238.56;10326695;28;834;-71
2023/12/06 07:45:58;;;;;;;;;;;;;;;17.37;42.83;99249.09;10325255;28;1913;-70
2023/12/06 07:50:53;;;;;;;;;;;;;;;17.34;42.78;99250.09;10325842;28;973;-70
2023/12/06 07:55:49;;;;;;;;;;;;;;;17.29;42.63;99260.00;10325679;28;1636;-70
2023/12/06 08:00:45;;;;;;;;;;;;;;;17.31;42.85;99258.16;10325665;28;778;-70
2023/12/06 08:05:41;;;;;;;;;;;;;;;17.27;42.82;99268.00;10325986;28;1897;-71
2023/12/06 08:10:38;;;;;;;;;;;;;;;17.25;42.94;99271.63;10326224;28;926;-70
2023/12/06 08:15:34;;;;;;;;;;;;;;;17.16;42.93;99277.31;10324569;28;858;-70
2023/12/06 08:20:30;;;;;;;;;;;;;;;17.12;43.26;99278.41;10325818;28;838;-70
2023/12/06 08:25:26;;;;;;;;;;;;;;;17.06;43.11;99285.69;10325623;28;1948;-71
2023/12/06 08:30:22;;;;;;;;;;;;;;;17.07;42.99;99283.91;10325158;28;853;-70
2023/12/06 08:35:18;;;;;;;;;;;;;;;17.04;43.07;99294.59;10324971;28;1543;-74
2023/12/06 08:40:14;;;;;;;;;;;;;;;17.06;43.11;99305.91;10324862;28;973;-70
2023/12/06 08:45:10;;;;;;;;;;;;;;;17.04;43.16;99311.22;10325212;28;1917;-70
2023/12/06 08:50:07;;;;;;;;;;;;;;;17.09;43.07;99308.38;10325467;28;812;-70
2023/12/06 08:55:03;;;;;;;;;;;;;;;17.07;43.05;99312.88;10322703;28;1034;-70
2023/12/06 08:59:59;;;;;;;;;;;;;;;17.14;42.82;99313.44;10322463;28;777;-70
2023/12/06 09:04:55;;;;;;;;;;;;;;;17.14;42.81;99319.56;10323934;28;1971;-70
2023/12/06 09:09:51;;;;;;;;;;;;;;;17.17;42.93;99322.03;10323938;28;847;-71
2023/12/06 09:14:47;;;;;;;;;;;;;;;17.18;42.80;99330.78;10325054;28;811;-70
2023/12/06 09:19:43;;;;;;;;;;;;;;;17.17;42.87;99329.94;10325401;28;922;-70
2023/12/06 09:24:39;;;;;;;;;;;;;;;17.20;43.10;99326.31;10324394;28;990;-71
2023/12/06 09:29:34;;;;;;;;;;;;;;;17.26;43.00;99321.59;10332191;28;1949;-70
2023/12/06 09:34:30;;;;;;;;;;;;;;;17.26;42.95;99339.19;10330849;28;1247;-70
2023/12/06 09:39:26;;;;;;;;;;;;;;;17.19;42.99;99349.16;10331364;28;893;-70
2023/12/06 09:44:22;;;;;;;;;;;;;;;17.23;42.82;99348.06;10331222;28;858;-68
2023/12/06 09:49:18;;;;;;;;;;;;;;;17.24;42.81;99347.16;10330727;28;1914;-71
2023/12/06 09:54:14;;;;;;;;;;;;;;;17.25;42.78;99354.13;10330791;28;878;-70
2023/12/06 09:59:10;;;;;;;;;;;;;;;17.25;42.79;99356.75;10330087;28;949;-70
2023/12/06 10:04:06;;;;;;;;;;;;;;;17.24;42.86;99360.34;10329980;28;825;-70
2023/12/06 10:09:03;;;;;;;;;;;;;;;17.21;43.06;99357.84;10329661;28;1890;-70
2023/12/06 10:13:59;;;;;;;;;;;;;;;17.27;42.94;99372.50;10329442;28;993;-69
2023/12/06 10:18:55;;;;;;;;;;;;;;;17.29;42.95;99375.91;10328879;28;928;-70
2023/12/06 10:23:51;;;;;;;;;;;;;;;17.29;43.04;99379.41;10325502;28;1112;-70
2023/12/06 10:28:46;;;;;;;;;;;;;;;17.29;43.05;99375.91;10328455;28;1894;-69
2023/12/06 10:33:42;;;;;;;;;;;;;;;17.30;43.06;99378.47;10328207;28;1330;-69
2023/12/06 10:38:38;;;;;;;;;;;;;;;17.30;43.08;99380.25;10327536;28;870;-69
2023/12/06 10:43:34;;;;;;;;;;;;;;;17.30;42.94;99378.47;10328304;28;1133;-69
2023/12/06 10:48:30;;;;;;;;;;;;;;;17.29;42.94;99379.41;10327929;28;1905;-70
2023/12/06 10:53:26;;;;;;;;;;;;;;;17.31;42.84;99380.16;10327262;28;770;-70
2023/12/06 10:58:22;;;;;;;;;;;;;;;17.30;43.01;99378.47;10326832;28;1008;-69
2023/12/06 11:03:18;;;;;;;;;;;;;;;17.32;42.93;99365.25;10327501;28;825;-69
2023/12/06 11:08:14;;;;;;;;;;;;;;;17.33;43.17;99374.84;10327549;28;1949;-69
2023/12/06 11:13:10;;;;;;;;;;;;;;;17.33;42.90;99376.63;10326519;28;877;-69
2023/12/06 11:18:06;;;;;;;;;;;;;;;17.30;43.08;99369.72;10326080;28;952;-70
2023/12/06 11:23:02;;;;;;;;;;;;;;;17.34;42.88;99378.31;10326183;28;799;-69
2023/12/06 11:27:58;;;;;;;;;;;;;;;17.31;43.07;99380.16;10327067;28;1953;-69
2023/12/06 11:32:54;;;;;;;;;;;;;;;17.33;42.93;99387.16;10326053;28;1473;-69
2023/12/06 11:37:50;;;;;;;;;;;;;;;17.34;42.85;99376.53;10326018;28;814;-69
2023/12/06 11:42:46;;;;;;;;;;;;;;;17.33;42.84;99379.28;10326117;28;923;-69
2023/12/06 11:47:42;;;;;;;;;;;;;;;17.34;43.12;99381.81;10325662;28;1905;-69
2023/12/06 11:52:38;;;;;;;;;;;;;;;17.30;42.90;99381.09;10324545;28;1043;-70
2023/12/06 11:57:34;;;;;;;;;;;;;;;17.30;42.98;99388.16;10325051;28;868;-69
2023/12/06 12:02:30;;;;;;;;;;;;;;;17.34;43.02;99389.72;10325055;28;866;-71
2023/12/06 12:07:26;;;;;;;;;;;;;;;17.35;42.81;99390.59;10325200;28;1947;-69
2023/12/06 12:12:22;;;;;;;;;;;;;;;17.37;42.94;99397.50;10325319;28;838;-69
2023/12/06 12:17:18;;;;;;;;;;;;;;;17.37;42.81;99392.22;10324903;28;783;-69
2023/12/06 12:22:14;;;;;;;;;;;;;;;17.38;42.80;99393.06;10325288;28;1251;-69
2023/12/06 12:27:10;;;;;;;;;;;;;;;17.37;43.06;99400.13;10325071;28;1890;-70
2023/12/06 12:32:06;;;;;;;;;;;;;;;17.38;42.94;99395.72;10324503;28;775;-69
2023/12/06 12:37:02;;;;;;;;;;;;;;;17.39;43.14;99400.88;10325134;28;1153;-69
2023/12/06 12:41:58;;;;;;;;;;;;;;;17.39;43.04;99402.69;10324908;28;810;-69
2023/12/06 12:46:54;;;;;;;;;;;;;;;17.39;43.11;99407.94;10325086;28;1914;-69
2023/12/06 12:51:50;;;;;;;;;;;;;;;17.37;43.02;99404.53;10324154;28;860;-69
2023/12/06 12:56:45;;;;;;;;;;;;;;;17.38;43.18;99414.16;10324900;28;865;-69
2023/12/06 13:01:42;;;;;;;;;;;;;;;17.41;43.33;99414.00;10327397;28;921;-69
2023/12/06 13:06:38;;;;;;;;;;;;;;;17.39;42.94;99421.97;10331443;28;1894;-69
2023/12/06 13:11:34;;;;;;;;;;;;;;;17.40;43.21;99421.06;10313601;28;819;-70
2023/12/06 13:16:30;;;;;;;;;;;;;;;17.40;43.09;99414.94;10331151;28;989;-68
2023/12/06 13:21:27;;;;;;;;;;;;;;;17.41;43.22;99424.53;10331698;28;859;-69
2023/12/06 13:26:22;;;;;;;;;;;;;;;17.42;43.36;99434.13;10330886;28;1951;-69
2023/12/06 13:31:18;;;;;;;;;;;;;;;17.41;43.21;99429.81;10330631;28;1025;-69
2023/12/06 13:36:15;;;;;;;;;;;;;;;17.39;43.37;99437.78;10330513;28;1157;-69
2023/12/06 13:41:10;;;;;;;;;;;;;;;17.41;43.28;99442.97;10331019;28;870;-69
2023/12/06 13:46:07;;;;;;;;;;;;;;;17.39;43.34;99442.19;10330102;28;1909;-69
2023/12/06 13:51:03;;;;;;;;;;;;;;;17.41;43.48;99453.53;10330229;28;865;-69
2023/12/06 13:55:59;;;;;;;;;;;;;;;17.40;43.16;99457.09;10330182;28;973;-70
2023/12/06 14:00:55;;;;;;;;;;;;;;;17.40;43.27;99467.63;10329240;28;877;-69
2023/12/06 14:05:50;;;;;;;;;;;;;;;17.42;43.07;99464.00;10329056;28;1890;-69
2023/12/06 14:10:46;;;;;;;;;;;;;;;17.41;43.20;99462.28;10329025;28;815;-72
2023/12/06 14:15:42;;;;;;;;;;;;;;;17.37;43.45;99467.75;10327734;28;843;-71
2023/12/06 14:20:38;;;;;;;;;;;;;;;17.42;43.09;99471.03;10329216;28;1204;-69
2023/12/06 14:25:34;;;;;;;;;;;;;;;17.40;43.43;99473.75;10328144;28;1890;-69
2023/12/06 14:30:30;;;;;;;;;;;;;;;17.39;43.41;99468.53;10328394;28;862;-69
2023/12/06 14:35:26;;;;;;;;;;;;;;;17.36;43.43;99474.81;10328651;28;1207;-69
2023/12/06 14:40:22;;;;;;;;;;;;;;;17.29;43.50;99476.88;10327608;28;865;-71
2023/12/06 14:45:18;;;;;;;;;;;;;;;17.28;43.65;99487.47;10328569;28;1914;-69
2023/12/06 14:50:14;;;;;;;;;;;;;;;17.24;43.67;99489.41;10327835;28;972;-69
2023/12/06 14:55:10;;;;;;;;;;;;;;;17.17;43.96;99492.38;10327066;28;897;-69
2023/12/06 15:00:09;;;;;;;;;;;;;;;17.17;43.72;99508.19;10327964;28;1718;-69
2023/12/06 15:05:05;;;;;;;;;;;;;;;17.15;43.99;99513.50;10328082;28;849;-69
2023/12/06 15:10:01;;;;;;;;;;;;;;;17.06;43.98;99516.56;10327275;28;931;-67
2023/12/06 15:14:57;;;;;;;;;;;;;;;17.04;43.87;99527.16;10327699;28;914;-69
2023/12/06 15:19:53;;;;;;;;;;;;;;;17.16;43.43;99532.78;10327512;28;824;-69
2023/12/06 15:24:48;;;;;;;;;;;;;;;17.15;43.44;99534.56;10326311;28;916;-69
2023/12/06 15:29:44;;;;;;;;;;;;;;;17.20;43.26;99540.50;10327100;28;1894;-69
2023/12/06 15:34:40;;;;;;;;;;;;;;;17.21;43.51;99546.59;10326940;28;1089;-68
2023/12/06 15:39:36;;;;;;;;;;;;;;;17.22;43.24;99554.47;10327678;28;917;-68
2023/12/06 15:44:32;;;;;;;;;;;;;;;17.27;43.40;99560.38;10325550;28;972;-69
2023/12/06 15:49:28;;;;;;;;;;;;;;;17.27;43.14;99570.91;10326467;28;1914;-69
2023/12/06 15:54:24;;;;;;;;;;;;;;;17.27;43.21;99570.91;10326662;28;825;-68
2023/12/06 15:59:21;;;;;;;;;;;;;;;17.28;43.42;99569.13;10325110;28;943;-70
2023/12/06 16:04:16;;;;;;;;;;;;;;;17.29;43.54;99581.38;10325408;28;829;-69
2023/12/06 16:09:13;;;;;;;;;;;;;;;17.29;43.33;99584.88;10324710;28;1951;-75
2023/12/06 16:14:09;;;;;;;;;;;;;;;17.30;43.38;99583.94;10325066;28;974;-69
2023/12/06 16:19:05;;;;;;;;;;;;;;;17.32;43.20;99581.25;10325662;28;841;-69
2023/12/06 16:24:01;;;;;;;;;;;;;;;17.32;43.40;99589.16;10325521;28;870;-69
2023/12/06 16:28:57;;;;;;;;;;;;;;;17.35;43.47;99609.25;10324991;28;2004;-69
2023/12/06 16:33:53;;;;;;;;;;;;;;;17.36;43.21;99613.59;10324937;28;1420;-69
2023/12/06 16:38:49;;;;;;;;;;;;;;;17.42;43.05;99618.56;10332566;28;951;-69
2023/12/06 16:43:45;;;;;;;;;;;;;;;17.35;43.22;99625.06;10333394;28;925;-69
2023/12/06 16:48:40;;;;;;;;;;;;;;;17.33;43.42;99627.75;10332921;28;1946;-69
2023/12/06 16:53:36;;;;;;;;;;;;;;;17.36;43.44;99638.16;10333216;28;775;-69
2023/12/06 16:58:32;;;;;;;;;;;;;;;17.33;43.51;99643.56;10332453;28;850;-68
2023/12/06 17:03:28;;;;;;;;;;;;;;;17.36;43.28;99645.19;10332806;28;857;-69
2023/12/06 17:08:24;;;;;;;;;;;;;;;17.38;43.31;99651.25;10332555;28;1906;-69
2023/12/06 17:13:20;;;;;;;;;;;;;;;17.39;43.07;99661.72;10332587;28;817;-68
2023/12/06 17:18:16;;;;;;;;;;;;;;;17.38;43.14;99674.97;10331721;28;966;-69
2023/12/06 17:23:12;;;;;;;;;;;;;;;17.39;43.07;99693.34;10331495;28;839;-69
2023/12/06 17:28:09;;;;;;;;;;;;;;;17.38;43.02;99689.00;10331318;28;1914;-69
2023/12/06 17:33:04;;;;;;;;;;;;;;;17.40;43.20;99689.81;10331110;28;1097;-69
2023/12/06 17:38:00;;;;;;;;;;;;;;;17.41;43.13;99701.19;10331059;28;763;-69
2023/12/06 17:42:59;;;;;;;;;;;;;;;17.42;43.13;99701.13;10331454;28;865;-69
2023/12/06 17:47:55;;;;;;;;;;;;;;;17.42;42.99;99703.78;10330333;28;1968;-69
2023/12/06 17:52:51;;;;;;;;;;;;;;;17.42;43.07;99711.69;10330493;28;810;-68
2023/12/06 17:57:47;;;;;;;;;;;;;;;17.42;42.92;99709.03;10330221;28;891;-69
2023/12/06 18:02:43;;;;;;;;;;;;;;;17.47;42.87;99716.72;10329487;28;1015;-69
2023/12/06 18:07:39;;;;;;;;;;;;;;;17.44;42.98;99725.63;10329248;28;1894;-69
2023/12/06 18:12:34;;;;;;;;;;;;;;;17.44;42.97;99727.41;10329718;28;775;-69
2023/12/06 18:17:30;;;;;;;;;;;;;;;17.43;43.06;99730.97;10329549;28;838;-68
2023/12/06 18:22:29;;;;;;;;;;;;;;;17.42;43.09;99731.88;10329292;28;988;-69
2023/12/06 18:27:25;;;;;;;;;;;;;;;17.47;42.89;99743.09;10329006;28;1955;-68
2023/12/06 18:32:21;;;;;;;;;;;;;;;17.45;42.88;99747.59;10328256;28;958;-69
2023/12/06 18:37:17;;;;;;;;;;;;;;;17.45;42.90;99763.38;10329406;28;1203;-68
2023/12/06 18:42:12;;;;;;;;;;;;;;;17.45;42.90;99758.13;10328535;28;988;-68
2023/12/06 18:47:09;;;;;;;;;;;;;;;17.47;42.99;99761.53;10328588;28;1909;-68
2023/12/06 18:52:05;;;;;;;;;;;;;;;17.47;42.95;99750.97;10328735;28;837;-68
2023/12/06 18:57:01;;;;;;;;;;;;;;;17.50;42.84;99756.13;10327390;28;779;-69
2023/12/06 19:01:57;;;;;;;;;;;;;;;17.44;43.10;99751.97;10327490;28;777;-69
2023/12/06 19:06:53;;;;;;;;;;;;;;;17.44;43.04;99759.03;10327534;28;1901;-69
2023/12/06 19:11:48;;;;;;;;;;;;;;;17.47;42.68;99772.91;10327904;28;907;-69
2023/12/06 19:16:44;;;;;;;;;;;;;;;17.46;42.94;99779.13;10327095;28;872;-69
2023/12/06 19:21:40;;;;;;;;;;;;;;;17.47;42.95;99772.06;10326359;28;864;-69
2023/12/06 19:26:36;;;;;;;;;;;;;;;17.47;43.02;99782.59;10327285;28;1893;-69
2023/12/06 19:31:34;;;;;;;;;;;;;;;17.49;42.77;99788.69;10326415;28;976;-69
2023/12/06 19:36:32;;;;;;;;;;;;;;;17.51;42.78;99787.69;10326477;28;1239;-68
2023/12/06 19:41:28;;;;;;;;;;;;;;;17.52;42.67;99788.53;10326199;28;899;-69
2023/12/06 19:46:23;;;;;;;;;;;;;;;17.50;42.96;99796.53;10326002;28;1914;-69
2023/12/06 19:51:20;;;;;;;;;;;;;;;17.46;42.98;99801.97;10325991;28;976;-69
2023/12/06 19:56:16;;;;;;;;;;;;;;;17.53;42.83;99806.94;10326522;28;861;-69
2023/12/06 20:01:12;;;;;;;;;;;;;;;17.48;42.95;99801.00;10325764;28;934;-68
2023/12/06 20:06:08;;;;;;;;;;;;;;;17.51;42.82;99790.34;10325569;28;1898;-69
2023/12/06 20:11:04;;;;;;;;;;;;;;;17.53;42.84;99803.47;10326132;28;834;-68
2023/12/06 20:15:59;;;;;;;;;;;;;;;17.51;42.91;99803.50;10325411;28;854;-69
2023/12/06 20:20:55;;;;;;;;;;;;;;;17.52;42.72;99809.63;10325335;28;854;-69
2023/12/06 20:25:51;;;;;;;;;;;;;;;17.50;42.96;99800.91;10325715;28;1955;-69
2023/12/06 20:30:47;;;;;;;;;;;;;;;17.52;42.88;99815.75;10325757;28;850;-69
2023/12/06 20:35:43;;;;;;;;;;;;;;;17.50;42.87;99816.72;10325578;28;1294;-68
2023/12/06 20:40:39;;;;;;;;;;;;;;;17.50;43.02;99822.88;10324945;28;822;-69
2023/12/06 20:45:35;;;;;;;;;;;;;;;17.45;43.07;99826.63;10324771;28;1910;-69
2023/12/06 20:50:31;;;;;;;;;;;;;;;17.46;42.89;99830.97;10324823;28;759;-68
2023/12/06 20:55:27;;;;;;;;;;;;;;;17.42;43.00;99826.72;10325467;28;842;-69
2023/12/06 21:00:23;;;;;;;;;;;;;;;17.40;42.96;99825.97;10325142;28;779;-68
2023/12/06 21:05:18;;;;;;;;;;;;;;;17.42;42.90;99832.00;10324983;28;1893;-69
2023/12/06 21:10:14;;;;;;;;;;;;;;;17.37;42.88;99837.47;10324329;28;1004;-69
2023/12/06 21:15:11;;;;;;;;;;;;;;;17.37;42.91;99831.31;10324481;28;799;-69
2023/12/06 21:20:07;;;;;;;;;;;;;;;17.39;42.76;99837.41;10324140;28;898;-69
2023/12/06 21:25:03;;;;;;;;;;;;;;;17.37;42.96;99847.13;10333015;28;831;-69
2023/12/06 21:29:59;;;;;;;;;;;;;;;17.33;42.90;99851.69;10331286;28;1902;-68
2023/12/06 21:34:55;;;;;;;;;;;;;;;17.30;43.11;99852.66;10331235;28;1694;-69
2023/12/06 21:39:50;;;;;;;;;;;;;;;17.31;43.08;99851.72;10331682;28;955;-68
2023/12/06 21:44:47;;;;;;;;;;;;;;;17.29;43.12;99860.59;10330762;28;1045;-68
2023/12/06 21:49:43;;;;;;;;;;;;;;;17.26;42.87;99861.59;10330561;28;1979;-68
2023/12/06 21:54:39;;;;;;;;;;;;;;;17.19;43.13;99862.78;10331041;28;846;-69
2023/12/06 21:59:35;;;;;;;;;;;;;;;17.17;43.14;99869.00;10329709;28;842;-68
2023/12/06 22:04:32;;;;;;;;;;;;;;;17.17;43.29;99875.13;10330094;28;951;-68
2023/12/06 22:09:27;;;;;;;;;;;;;;;17.18;43.24;99886.53;10329835;28;1882;-68
2023/12/06 22:14:24;;;;;;;;;;;;;;;17.14;43.07;99877.88;10329727;28;815;-69
2023/12/06 22:19:20;;;;;;;;;;;;;;;17.10;43.10;99873.66;10329554;28;782;-68
2023/12/06 22:24:16;;;;;;;;;;;;;;;17.10;42.95;99873.66;10329340;28;861;-68
2023/12/06 22:29:12;;;;;;;;;;;;;;;17.09;43.13;99879.84;10329575;28;1951;-68
2023/12/06 22:34:08;;;;;;;;;;;;;;;17.07;43.08;99882.53;10328152;28;1279;-68
2023/12/06 22:39:04;;;;;;;;;;;;;;;17.06;43.19;99879.97;10329306;28;872;-68
2023/12/06 22:44:00;;;;;;;;;;;;;;;17.05;43.32;99889.63;10329119;28;767;-68
2023/12/06 22:48:56;;;;;;;;;;;;;;;17.07;43.03;99892.19;10310943;28;1970;-68
2023/12/06 22:53:52;;;;;;;;;;;;;;;17.05;42.99;99894.03;10328853;28;783;-69
2023/12/06 22:58:48;;;;;;;;;;;;;;;17.03;43.22;99901.16;10328479;28;854;-68
2023/12/06 23:03:44;;;;;;;;;;;;;;;17.05;43.14;99912.47;10328304;28;857;-68
2023/12/06 23:08:40;;;;;;;;;;;;;;;17.05;42.94;99912.47;10327443;28;1902;-68
2023/12/06 23:13:36;;;;;;;;;;;;;;;17.02;43.27;99913.44;10327332;28;782;-68
2023/12/06 23:18:32;;;;;;;;;;;;;;;17.02;43.14;99909.94;10327700;28;898;-69
2023/12/06 23:23:27;;;;;;;;;;;;;;;17.01;42.93;99917.00;10327554;28;838;-69
2023/12/06 23:28:23;;;;;;;;;;;;;;;17.02;43.25;99918.69;10327280;28;1902;-69
2023/12/06 23:33:19;;;;;;;;;;;;;;;17.02;43.08;99931.00;10326810;28;1145;-69
2023/12/06 23:38:15;;;;;;;;;;;;;;;17.03;42.92;99930.97;10326425;28;845;-69
2023/12/06 23:43:11;;;;;;;;;;;;;;;17.01;43.22;99940.69;10326055;28;949;-69
2023/12/06 23:48:07;;;;;;;;;;;;;;;17.00;43.12;99932.84;10325449;28;1914;-69
2023/12/06 23:53:03;;;;;;;;;;;;;;;16.99;43.10;99933.78;10326090;28;869;-69
2023/12/06 23:57:59;;;;;;;;;;;;;;;17.00;42.95;99941.63;10326003;28;919;-68
